Time;durP1;ratioP1;P1;durP2;ratioP2;P2;SDS_P1;SDS_P2;PMS_P1;PMS_P2;Temp;Humidity;BMP_temperature;BMP_pressure;BME280_temperature;BME280_humidity;BME280_pressure;Samples;Min_cycle;Max_cycle;Signal;HPM_P1;HPM_P2
2021/05/23 00:01:32;;;;;;;1999.90;999.90;;;10.80;99.90;;;;;;5074029;28;20189;-77
2021/05/23 00:03:58;;;;;;;1999.90;999.90;;;10.80;99.90;;;;;;5073700;28;20635;-77
2021/05/23 00:06:23;;;;;;;1999.90;999.90;;;10.80;99.90;;;;;;5074326;28;20188;-76
2021/05/23 00:08:50;;;;;;;1999.90;999.90;;;10.90;99.90;;;;;;5075025;28;20270;-77
2021/05/23 00:11:15;;;;;;;1999.90;999.90;;;10.90;99.90;;;;;;5073892;28;20250;-77
2021/05/23 00:13:48;;;;;;;1999.90;999.90;;;10.80;99.90;;;;;;5056241;28;20200;-76
2021/05/23 00:16:17;;;;;;;1999.90;999.90;;;10.90;99.90;;;;;;5073813;28;20175;-77
2021/05/23 00:18:46;;;;;;;1999.90;999.90;;;10.90;99.90;;;;;;5073772;28;20647;-77
2021/05/23 00:21:18;;;;;;;1999.90;999.90;;;10.90;99.90;;;;;;5073576;28;20188;-77
2021/05/23 00:23:43;;;;;;;1999.90;999.90;;;10.90;99.90;;;;;;5073525;28;20199;-76
2021/05/23 00:26:10;;;;;;;1999.90;999.90;;;10.90;99.90;;;;;;5073513;28;20186;-77
2021/05/23 00:28:36;;;;;;;1999.90;999.90;;;10.70;99.90;;;;;;5073413;28;20267;-78
2021/05/23 00:31:03;;;;;;;1999.90;999.90;;;10.80;99.90;;;;;;5055415;28;20271;-77
2021/05/23 00:33:29;;;;;;;1999.90;999.90;;;10.80;99.90;;;;;;5073345;28;20207;-76
2021/05/23 00:35:55;;;;;;;1999.90;999.90;;;10.80;99.90;;;;;;5073415;28;20208;-76
2021/05/23 00:38:21;;;;;;;1999.90;999.90;;;10.80;99.90;;;;;;5073314;28;20240;-76
2021/05/23 00:40:46;;;;;;;1999.90;999.90;;;10.80;99.90;;;;;;5073316;28;20184;-77
2021/05/23 00:43:15;;;;;;;1999.90;999.90;;;10.70;99.90;;;;;;5073265;28;20175;-76
2021/05/23 00:45:41;;;;;;;1999.90;999.90;;;10.60;99.90;;;;;;5056559;28;20212;-76
2021/05/23 00:48:08;;;;;;;1999.90;999.90;;;10.40;99.90;;;;;;5064708;28;20546;-76
2021/05/23 00:50:35;;;;;;;1999.90;999.90;;;10.40;99.90;;;;;;5055054;28;20180;-76
2021/05/23 00:53:02;;;;;;;1999.90;999.90;;;10.30;99.90;;;;;;5073039;28;20518;-76
2021/05/23 00:55:28;;;;;;;1999.90;999.90;;;10.20;99.90;;;;;;5072836;28;20224;-77
2021/05/23 00:57:54;;;;;;;1999.90;999.90;;;10.30;99.90;;;;;;5072993;28;20655;-76
2021/05/23 01:00:39;;;;;;;1999.90;999.90;;;10.20;99.90;;;;;;5054837;28;20271;-77
2021/05/23 01:03:27;;;;;;;1999.90;999.90;;;10.10;99.90;;;;;;5072273;28;20237;-77
2021/05/23 01:05:53;;;;;;;1999.90;999.90;;;10.00;99.90;;;;;;5067474;28;20223;-76
2021/05/23 01:08:19;;;;;;;1999.90;999.90;;;10.00;99.90;;;;;;5054440;28;20187;-76
2021/05/23 01:11:06;;;;;;;1999.90;999.90;;;10.10;99.90;;;;;;5037814;28;20249;-77
2021/05/23 01:13:34;;;;;;;1999.90;999.90;;;10.00;99.90;;;;;;5060349;28;20168;-77
2021/05/23 01:16:17;;;;;;;1999.90;999.90;;;10.00;99.90;;;;;;5055202;28;20516;-76
2021/05/23 01:19:01;;;;;;;1999.90;999.90;;;9.80;99.90;;;;;;5039583;28;20174;-76
2021/05/23 01:21:29;;;;;;;1999.90;999.90;;;10.00;99.90;;;;;;5065882;28;20837;-77
2021/05/23 01:24:02;;;;;;;1999.90;999.90;;;10.10;99.90;;;;;;5036350;28;20630;-76
2021/05/23 01:26:43;;;;;;;1999.90;999.90;;;10.00;99.90;;;;;;5047750;28;20168;-77
2021/05/23 01:29:11;;;;;;;1999.90;999.90;;;9.90;99.90;;;;;;5068909;28;20232;-76
2021/05/23 01:31:41;;;;;;;1999.90;999.90;;;9.90;99.90;;;;;;5054355;28;20172;-76
2021/05/23 01:34:08;;;;;;;1999.90;999.90;;;9.80;99.90;;;;;;5072211;28;20695;-76
2021/05/23 01:36:40;;;;;;;1999.90;999.90;;;9.90;99.90;;;;;;5072193;28;20186;-77
2021/05/23 01:39:08;;;;;;;1999.90;999.90;;;10.00;99.90;;;;;;5072177;28;20189;-76
2021/05/23 01:41:36;;;;;;;1999.90;999.90;;;10.00;99.90;;;;;;5072008;28;20594;-76
2021/05/23 01:44:02;;;;;;;1999.90;999.90;;;10.10;99.90;;;;;;5071890;28;20206;-76
2021/05/23 01:46:28;;;;;;;1999.90;999.90;;;10.00;99.90;;;;;;5071961;28;20184;-76
2021/05/23 01:48:54;;;;;;;1999.90;999.90;;;9.90;99.90;;;;;;5063328;28;20178;-76
2021/05/23 01:51:20;;;;;;;1999.90;999.90;;;9.70;99.90;;;;;;5072513;28;20727;-76
2021/05/23 01:53:45;;;;;;;1999.90;999.90;;;9.70;99.90;;;;;;5054876;28;20672;-79
2021/05/23 01:56:11;;;;;;;1999.90;999.90;;;9.60;99.90;;;;;;5051681;28;20589;-77
2021/05/23 01:58:37;;;;;;;1999.90;999.90;;;9.70;99.90;;;;;;5071753;28;20186;-76
2021/05/23 02:01:03;;;;;;;1999.90;999.90;;;9.70;99.90;;;;;;5053682;28;20286;-78
2021/05/23 02:03:29;;;;;;;1999.90;999.90;;;9.50;99.90;;;;;;5068017;28;20190;-77
2021/05/23 02:05:57;;;;;;;1999.90;999.90;;;9.40;99.90;;;;;;5059578;28;20593;-77
2021/05/23 02:08:25;;;;;;;1999.90;999.90;;;9.50;99.90;;;;;;5052009;28;20745;-77
2021/05/23 02:10:54;;;;;;;1999.90;999.90;;;9.40;99.90;;;;;;5069416;28;20723;-76
2021/05/23 02:13:20;;;;;;;1999.90;999.90;;;9.40;99.90;;;;;;5071094;28;20633;-77
2021/05/23 02:15:46;;;;;;;1999.90;999.90;;;9.50;99.90;;;;;;5052424;28;20228;-76
2021/05/23 02:18:12;;;;;;;1999.90;999.90;;;9.40;99.90;;;;;;5071062;28;20169;-77
2021/05/23 02:20:38;;;;;;;1999.90;999.90;;;9.50;99.90;;;;;;5070531;28;20185;-77
2021/05/23 02:23:11;;;;;;;1999.90;999.90;;;9.50;99.90;;;;;;5071111;28;20174;-76
2021/05/23 02:25:37;;;;;;;1999.90;999.90;;;9.40;99.90;;;;;;5053027;28;20210;-77
2021/05/23 02:28:05;;;;;;;1999.90;999.90;;;9.40;99.90;;;;;;5071012;28;20599;-77
2021/05/23 02:30:37;;;;;;;1999.90;999.90;;;9.40;99.90;;;;;;5071947;28;20532;-77
2021/05/23 02:33:05;;;;;;;1999.90;999.90;;;9.50;99.90;;;;;;5072048;28;20255;-75
2021/05/23 02:35:33;;;;;;;1999.90;999.90;;;9.40;99.90;;;;;;5070912;28;20205;-76
2021/05/23 02:38:00;;;;;;;1999.90;999.90;;;9.40;99.90;;;;;;5052861;28;20185;-77
2021/05/23 02:40:28;;;;;;;1999.90;999.90;;;9.50;99.90;;;;;;5052941;28;20231;-76
2021/05/23 02:42:55;;;;;;;1999.90;999.90;;;9.30;99.90;;;;;;5052722;28;20181;-76
2021/05/23 02:45:21;;;;;;;1999.90;999.90;;;9.20;99.90;;;;;;5070610;28;20700;-76
2021/05/23 02:47:48;;;;;;;1999.90;999.90;;;9.10;99.90;;;;;;5062477;28;20170;-76
2021/05/23 02:50:18;;;;;;;1999.90;999.90;;;9.00;99.90;;;;;;5070488;28;20175;-76
2021/05/23 02:52:45;;;;;;;1999.90;999.90;;;9.00;99.90;;;;;;5071079;28;20571;-76
2021/05/23 02:55:12;;;;;;;1999.90;999.90;;;9.00;99.90;;;;;;5052402;28;20599;-76
2021/05/23 02:57:39;;;;;;;1999.90;999.90;;;9.10;99.90;;;;;;5070602;28;20186;-77
2021/05/23 03:00:07;;;;;;;1999.90;999.90;;;9.10;99.90;;;;;;5070576;28;20270;-76
2021/05/23 03:02:34;;;;;;;1999.90;999.90;;;9.00;99.90;;;;;;5070506;28;20174;-77
2021/05/23 03:05:00;;;;;;;1999.90;999.90;;;9.00;99.90;;;;;;5052816;28;20236;-76
2021/05/23 03:07:26;;;;;;;1999.90;999.90;;;8.90;99.90;;;;;;5070468;28;20698;-77
2021/05/23 03:09:51;;;;;;;1999.90;999.90;;;9.00;99.90;;;;;;5052433;28;20174;-75
2021/05/23 03:12:17;;;;;;;1999.90;999.90;;;8.90;99.90;;;;;;5052967;28;20184;-77
2021/05/23 03:14:43;;;;;;;1999.90;999.90;;;8.80;99.90;;;;;;5072352;28;20603;-74
2021/05/23 03:17:10;;;;;;;1999.90;999.90;;;8.90;99.90;;;;;;5071332;28;20189;-76
2021/05/23 03:19:37;;;;;;;1999.90;999.90;;;8.90;99.90;;;;;;5070398;28;20228;-76
2021/05/23 03:22:04;;;;;;;1999.90;999.90;;;9.00;99.90;;;;;;5052905;28;20195;-77
2021/05/23 03:24:30;;;;;;;1999.90;999.90;;;8.90;99.90;;;;;;5070168;28;20209;-78
2021/05/23 03:26:56;;;;;;;1999.90;999.90;;;8.90;99.90;;;;;;5054290;28;20182;-76
2021/05/23 03:29:22;;;;;;;1999.90;999.90;;;8.80;99.90;;;;;;5056128;28;20181;-76
2021/05/23 03:31:47;;;;;;;1999.90;999.90;;;8.70;99.90;;;;;;5071672;28;20177;-76
2021/05/23 03:34:13;;;;;;;1999.90;999.90;;;8.70;99.90;;;;;;5074275;28;20286;-76
2021/05/23 03:36:39;;;;;;;1999.90;999.90;;;8.70;99.90;;;;;;5074231;28;20191;-76
2021/05/23 03:39:05;;;;;;;1999.90;999.90;;;8.70;99.90;;;;;;5074250;28;20542;-76
2021/05/23 03:41:31;;;;;;;1999.90;999.90;;;8.70;99.90;;;;;;5074028;28;20182;-76
2021/05/23 03:43:56;;;;;;;1999.90;999.90;;;7.00;99.90;;;;;;5061674;28;20211;-75
2021/05/23 03:46:22;;;;;;;1999.90;999.90;;;8.60;99.90;;;;;;5037238;28;20174;-76
2021/05/23 03:48:48;;;;;;;1999.90;999.90;;;8.60;99.90;;;;;;5066161;28;20250;-75
2021/05/23 03:51:13;;;;;;;1999.90;999.90;;;8.60;99.90;;;;;;5057366;28;20742;-76
2021/05/23 03:53:39;;;;;;;1999.90;999.90;;;8.60;99.90;;;;;;5040859;28;20170;-76
2021/05/23 03:56:05;;;;;;;1999.90;999.90;;;8.60;99.90;;;;;;5068335;28;20170;-76
2021/05/23 03:58:30;;;;;;;1999.90;999.90;;;8.50;99.90;;;;;;5039727;28;20177;-76
2021/05/23 04:00:56;;;;;;;1999.90;999.90;;;8.60;99.90;;;;;;5038230;28;20211;-76
2021/05/23 04:03:25;;;;;;;1999.90;999.90;;;8.50;99.90;;;;;;5056888;28;20828;-78
2021/05/23 04:05:51;;;;;;;1999.90;999.90;;;;;;;;;;5058985;28;20632;-76
2021/05/23 04:08:16;;;;;;;1999.90;999.90;;;7.70;99.90;;;;;;5055673;28;20233;-77
2021/05/23 04:10:48;;;;;;;1999.90;999.90;;;8.60;99.90;;;;;;5056122;28;20227;-78
2021/05/23 04:13:14;;;;;;;1999.90;999.90;;;8.40;99.90;;;;;;5067547;28;20179;-79
2021/05/23 04:15:40;;;;;;;1999.90;999.90;;;8.50;99.90;;;;;;5071771;28;20211;-79
2021/05/23 04:18:05;;;;;;;1999.90;999.90;;;8.50;99.90;;;;;;5072930;28;20211;-77
2021/05/23 04:20:31;;;;;;;1999.90;999.90;;;8.60;99.90;;;;;;5073541;28;20182;-76
2021/05/23 04:22:57;;;;;;;1999.90;999.90;;;8.70;99.90;;;;;;5072726;28;20296;-76
2021/05/23 04:25:24;;;;;;;1999.90;999.90;;;7.60;99.90;;;;;;5073164;28;20293;-76
2021/05/23 04:27:51;;;;;;;1999.90;999.90;;;8.10;99.90;;;;;;5073246;28;20165;-76
2021/05/23 04:30:20;;;;;;;1999.90;999.90;;;9.20;99.90;;;;;;5073331;28;20248;-78
2021/05/23 04:32:46;;;;;;;1999.90;999.90;;;8.30;99.90;;;;;;5074356;28;20670;-76
2021/05/23 04:35:14;;;;;;;1999.90;999.90;;;8.50;99.90;;;;;;5074552;28;20225;-76
2021/05/23 04:37:40;;;;;;;1999.90;999.90;;;8.40;99.90;;;;;;5073889;28;20178;-77
2021/05/23 04:40:07;;;;;;;1999.90;999.90;;;8.80;99.90;;;;;;5073297;28;20182;-76
2021/05/23 04:42:35;;;;;;;1999.90;999.90;;;8.50;99.90;;;;;;5073081;28;20194;-76
2021/05/23 04:45:01;;;;;;;1999.90;999.90;;;8.10;99.90;;;;;;5073223;28;20563;-76
2021/05/23 04:47:27;;;;;;;1999.90;999.90;;;8.30;99.90;;;;;;5050005;28;20182;-76
2021/05/23 04:49:53;;;;;;;1999.90;999.90;;;8.30;99.90;;;;;;5069848;28;20190;-76
2021/05/23 04:52:19;;;;;;;1999.90;999.90;;;8.40;99.90;;;;;;5072897;28;20671;-77
2021/05/23 04:54:44;;;;;;;1999.90;999.90;;;8.40;99.90;;;;;;5072607;28;20223;-76
2021/05/23 04:57:10;;;;;;;1999.90;999.90;;;8.40;99.90;;;;;;5072687;28;20234;-76
2021/05/23 04:59:36;;;;;;;1999.90;999.90;;;8.70;99.90;;;;;;5072804;28;20268;-76
2021/05/23 05:02:03;;;;;;;1999.90;999.90;;;8.70;99.90;;;;;;5056616;28;20670;-76
2021/05/23 05:04:29;;;;;;;1999.90;999.90;;;8.70;99.90;;;;;;5073075;28;20586;-78
2021/05/23 05:06:55;;;;;;;1999.90;999.90;;;8.70;99.90;;;;;;5072608;28;20177;-76
2021/05/23 05:09:21;;;;;;;1999.90;999.90;;;8.70;99.90;;;;;;5072807;28;20181;-76
2021/05/23 05:11:47;;;;;;;1999.90;999.90;;;8.90;99.90;;;;;;5073016;28;20655;-77
2021/05/23 05:14:13;;;;;;;1999.90;999.90;;;8.90;99.90;;;;;;5072279;28;20304;-76
2021/05/23 05:16:40;;;;;;;1999.90;999.90;;;8.80;99.90;;;;;;5072431;28;20193;-76
2021/05/23 05:19:09;;;;;;;1999.90;999.90;;;8.90;99.90;;;;;;5072292;28;20670;-76
2021/05/23 05:21:35;;;;;;;1999.90;999.90;;;8.70;99.90;;;;;;5072330;28;20183;-77
2021/05/23 05:24:01;;;;;;;1999.90;999.90;;;8.80;99.90;;;;;;5073203;28;20206;-77
2021/05/23 05:26:27;;;;;;;1999.90;999.90;;;8.80;99.90;;;;;;5052866;28;20174;-76
2021/05/23 05:28:53;;;;;;;1999.90;999.90;;;8.70;99.90;;;;;;5054802;28;20207;-77
2021/05/23 05:31:18;;;;;;;1999.90;999.90;;;8.70;99.90;;;;;;5072099;28;20213;-76
2021/05/23 05:33:44;;;;;;;1999.90;999.90;;;8.90;99.90;;;;;;5071992;28;20181;-76
2021/05/23 05:36:10;;;;;;;1999.90;999.90;;;8.90;99.90;;;;;;5072053;28;20178;-76
2021/05/23 05:38:35;;;;;;;1999.90;999.90;;;8.90;99.90;;;;;;5053986;28;20208;-75
2021/05/23 05:41:02;;;;;;;1999.90;999.90;;;8.80;99.90;;;;;;5071973;28;20186;-77
2021/05/23 05:43:28;;;;;;;1999.90;999.90;;;8.70;99.90;;;;;;5071793;28;20358;-77
2021/05/23 05:45:54;;;;;;;1999.90;999.90;;;8.80;99.90;;;;;;5071748;28;20308;-76
2021/05/23 05:48:19;;;;;;;1999.90;999.90;;;8.90;99.90;;;;;;5062938;28;20647;-76
2021/05/23 05:50:45;;;;;;;1999.90;999.90;;;8.80;99.90;;;;;;5059539;28;20636;-76
2021/05/23 05:53:11;;;;;;;1999.90;999.90;;;8.80;99.90;;;;;;5068577;28;20173;-76
2021/05/23 05:55:36;;;;;;;1999.90;999.90;;;8.80;99.90;;;;;;5053918;28;20593;-75
2021/05/23 05:58:02;;;;;;;1999.90;999.90;;;8.70;99.90;;;;;;5053726;28;20562;-75
2021/05/23 06:00:28;;;;;;;1999.90;999.90;;;8.80;99.90;;;;;;5069427;28;20202;-76
2021/05/23 06:02:54;;;;;;;1999.90;999.90;;;8.90;99.90;;;;;;5062919;28;20646;-75
2021/05/23 06:05:20;;;;;;;1999.90;999.90;;;8.90;99.90;;;;;;5035767;28;20685;-76
2021/05/23 06:07:46;;;;;;;1999.90;999.90;;;8.90;99.90;;;;;;5056094;28;20183;-76
2021/05/23 06:10:14;;;;;;;1999.90;999.90;;;8.90;99.90;;;;;;5038142;28;20175;-76
2021/05/23 06:12:40;;;;;;;1999.90;999.90;;;8.90;99.90;;;;;;5057123;28;20174;-77
2021/05/23 06:15:07;;;;;;;1999.90;999.90;;;9.00;99.90;;;;;;5055141;28;20198;-75
2021/05/23 06:17:33;;;;;;;1999.90;999.90;;;9.00;99.90;;;;;;5054389;28;20193;-76
2021/05/23 06:19:59;;;;;;;1999.90;999.90;;;9.00;99.90;;;;;;5035324;28;20195;-76
2021/05/23 06:22:25;;;;;;;1999.90;999.90;;;9.20;99.90;;;;;;5053639;28;20199;-76
2021/05/23 06:24:51;;;;;;;1999.90;999.90;;;9.10;99.90;;;;;;5053911;28;20203;-76
2021/05/23 06:27:16;;;;;;;1999.90;999.90;;;9.20;99.90;;;;;;5071934;28;20687;-75
2021/05/23 06:29:45;;;;;;;1999.90;999.90;;;9.30;99.90;;;;;;5058399;28;20166;-75
2021/05/23 06:32:10;;;;;;;1999.90;999.90;;;9.30;99.90;;;;;;5064616;28;20171;-75
2021/05/23 06:34:36;;;;;;;1999.90;999.90;;;9.30;99.90;;;;;;5073069;28;20194;-75
2021/05/23 06:37:02;;;;;;;1999.90;999.90;;;9.40;99.90;;;;;;5046965;28;20180;-76
2021/05/23 06:39:28;;;;;;;1999.90;999.90;;;9.50;99.90;;;;;;5036043;28;20179;-75
2021/05/23 06:41:54;;;;;;;1999.90;999.90;;;9.50;99.90;;;;;;5059548;28;20188;-76
2021/05/23 06:44:19;;;;;;;1999.90;999.90;;;9.50;99.90;;;;;;5071576;28;20215;-75
2021/05/23 06:46:45;;;;;;;1999.90;999.90;;;9.60;99.90;;;;;;5062837;28;20549;-75
2021/05/23 06:49:11;;;;;;;1999.90;999.90;;;9.60;99.90;;;;;;5072568;28;20375;-76
2021/05/23 06:51:37;;;;;;;1999.90;999.90;;;9.60;99.90;;;;;;5056892;28;20232;-75
2021/05/23 06:54:04;;;;;;;1999.90;999.90;;;9.70;99.90;;;;;;5034669;28;20212;-76
2021/05/23 06:56:30;;;;;;;1999.90;999.90;;;9.70;99.90;;;;;;5054693;28;20653;-76
2021/05/23 06:58:55;;;;;;;1999.90;999.90;;;9.80;99.90;;;;;;5072944;28;20182;-75
2021/05/23 07:01:21;;;;;;;1999.90;999.90;;;10.00;99.90;;;;;;5049246;28;20185;-75
2021/05/23 07:03:47;;;;;;;1999.90;999.90;;;10.00;99.90;;;;;;5068161;28;20183;-76
2021/05/23 07:06:12;;;;;;;1999.90;999.90;;;10.00;99.90;;;;;;5072922;28;20176;-76
2021/05/23 07:08:38;;;;;;;1999.90;999.90;;;10.10;99.90;;;;;;5072936;28;20235;-76
2021/05/23 07:11:04;;;;;;;1999.90;999.90;;;10.20;99.90;;;;;;5049756;28;20228;-76
2021/05/23 07:13:30;;;;;;;1999.90;999.90;;;10.30;99.90;;;;;;5055265;28;20174;-75
2021/05/23 07:15:55;;;;;;;1999.90;999.90;;;10.20;99.90;;;;;;5072746;28;20225;-76
2021/05/23 07:18:22;;;;;;;1999.90;999.90;;;10.20;99.90;;;;;;5072976;28;20179;-76
2021/05/23 07:20:47;;;;;;;1999.90;999.90;;;10.20;99.90;;;;;;5061971;28;20200;-76
2021/05/23 07:23:13;;;;;;;1999.90;999.90;;;10.30;99.90;;;;;;5072778;28;20174;-76
2021/05/23 07:25:39;;;;;;;1999.90;999.90;;;10.50;99.90;;;;;;5072007;28;20211;-75
2021/05/23 07:28:06;;;;;;;1999.90;999.90;;;10.50;99.90;;;;;;5053920;28;20169;-75
2021/05/23 07:30:33;;;;;;;1999.90;999.90;;;10.50;99.90;;;;;;5052310;28;20165;-75
2021/05/23 07:32:58;;;;;;;1999.90;999.90;;;10.60;99.90;;;;;;5066565;28;20656;-76
2021/05/23 07:35:24;;;;;;;1999.90;999.90;;;10.60;99.90;;;;;;5053148;28;20207;-77
2021/05/23 07:37:50;;;;;;;1999.90;999.90;;;10.60;99.90;;;;;;5067950;28;20202;-76
2021/05/23 07:40:16;;;;;;;1999.90;999.90;;;10.70;99.90;;;;;;5054277;28;20192;-76
2021/05/23 07:42:42;;;;;;;1999.90;999.90;;;10.70;99.90;;;;;;5072460;28;20258;-76
2021/05/23 07:45:09;;;;;;;1999.90;999.90;;;10.80;99.90;;;;;;5072295;28;20199;-76
2021/05/23 07:47:34;;;;;;;1999.90;999.90;;;10.80;99.90;;;;;;5065805;28;20172;-76
2021/05/23 07:50:00;;;;;;;1999.90;999.90;;;10.90;99.90;;;;;;5048410;28;20222;-75
2021/05/23 07:52:26;;;;;;;1999.90;999.90;;;11.00;99.90;;;;;;5062727;28;20173;-76
2021/05/23 07:54:51;;;;;;;1999.90;999.90;;;11.30;99.90;;;;;;5037138;28;20604;-76
2021/05/23 07:57:17;;;;;;;1999.90;999.90;;;11.30;99.90;;;;;;5072545;28;20656;-76
2021/05/23 07:59:43;;;;;;;1999.90;999.90;;;11.40;99.90;;;;;;5072024;28;20263;-75
2021/05/23 08:02:08;;;;;;;1999.90;999.90;;;11.60;99.90;;;;;;5072205;28;20420;-76
2021/05/23 08:04:34;;;;;;;1999.90;999.90;;;11.40;99.90;;;;;;5054397;28;20578;-76
2021/05/23 08:07:00;;;;;;;1999.90;999.90;;;11.30;99.90;;;;;;5057269;28;20696;-78
2021/05/23 08:09:26;;;;;;;1999.90;999.90;;;11.30;99.90;;;;;;5034592;28;20712;-76
2021/05/23 08:11:51;;;;;;;1999.90;999.90;;;11.50;99.90;;;;;;5050980;28;20703;-77
2021/05/23 08:14:17;;;;;;;1999.90;999.90;;;11.60;99.90;;;;;;5052944;28;20203;-76
2021/05/23 08:16:44;;;;;;;1999.90;999.90;;;11.60;99.90;;;;;;5057391;28;20230;-75
2021/05/23 08:19:11;;;;;;;1999.90;999.90;;;11.60;99.90;;;;;;5072908;28;20219;-76
2021/05/23 08:21:38;;;;;;;1999.90;999.90;;;11.60;99.90;;;;;;5048636;28;20191;-75
2021/05/23 08:24:06;;;;;;;1999.90;999.90;;;11.70;99.90;;;;;;5069904;28;20204;-75
2021/05/23 08:26:32;;;;;;;1999.90;999.90;;;11.90;99.90;;;;;;5071106;28;20184;-76
2021/05/23 08:28:59;;;;;;;1999.90;999.90;;;11.90;99.90;;;;;;5057264;28;20249;-75
2021/05/23 08:31:25;;;;;;;1999.90;999.90;;;11.80;99.90;;;;;;5075586;28;20173;-76
2021/05/23 08:33:50;;;;;;;1999.90;999.90;;;11.90;99.90;;;;;;5075405;28;20188;-76
2021/05/23 08:36:16;;;;;;;1999.90;999.90;;;11.90;99.90;;;;;;5057404;28;20177;-76
2021/05/23 08:38:42;;;;;;;1999.90;999.90;;;12.00;99.90;;;;;;5074233;28;20672;-76
2021/05/23 08:41:08;;;;;;;1999.90;999.90;;;12.20;99.90;;;;;;5065135;28;20178;-76
2021/05/23 08:43:34;;;;;;;1999.90;999.90;;;12.40;99.90;;;;;;5053067;28;20554;-76
2021/05/23 08:46:01;;;;;;;1999.90;999.90;;;12.30;99.90;;;;;;5075357;28;20235;-76
2021/05/23 08:48:27;;;;;;;1999.90;999.90;;;12.30;99.90;;;;;;5074969;28;20180;-76
2021/05/23 08:50:53;;;;;;;1999.90;999.90;;;12.40;99.90;;;;;;5074872;28;20173;-76
2021/05/23 08:53:18;;;;;;;1999.90;999.90;;;12.40;99.90;;;;;;5058461;28;20176;-83
2021/05/23 08:55:45;;;;;;;1999.90;999.90;;;12.50;99.90;;;;;;5078295;28;20295;-83
2021/05/23 08:58:11;;;;;;;1999.90;999.90;;;12.60;99.90;;;;;;5079746;28;20556;-83
2021/05/23 09:00:37;;;;;;;1999.90;999.90;;;12.70;99.90;;;;;;5080604;28;20672;-84
2021/05/23 09:03:05;;;;;;;1999.90;999.90;;;12.80;99.90;;;;;;5061745;28;20180;-83
2021/05/23 09:05:42;;;;;;;1999.90;999.90;;;12.90;99.90;;;;;;5080800;28;20226;-82
2021/05/23 09:08:12;;;;;;;1999.90;999.90;;;13.00;99.90;;;;;;5081098;28;20260;-83
2021/05/23 09:10:40;;;;;;;1999.90;999.90;;;13.20;99.90;;;;;;5062124;28;20169;-83
2021/05/23 09:13:06;;;;;;;1999.90;999.90;;;13.20;99.90;;;;;;5080480;28;20242;-83
2021/05/23 09:15:32;;;;;;;1999.90;999.90;;;13.20;99.90;;;;;;5081672;28;20197;-82
2021/05/23 09:18:05;;;;;;;1999.90;999.90;;;13.40;99.90;;;;;;5061881;28;20192;-83
2021/05/23 09:20:32;;;;;;;1999.90;999.90;;;13.30;99.90;;;;;;5079975;28;20191;-83
2021/05/23 09:23:00;;;;;;;1999.90;999.90;;;13.30;99.90;;;;;;5061852;28;20645;-82
2021/05/23 09:25:36;;;;;;;1999.90;999.90;;;13.60;99.90;;;;;;5079716;28;20193;-82
2021/05/23 09:28:04;;;;;;;1999.90;999.90;;;13.50;99.90;;;;;;5078393;28;20173;-82
2021/05/23 09:30:31;;;;;;;1999.90;999.90;;;13.50;99.90;;;;;;5052313;28;20260;-83
2021/05/23 09:32:58;;;;;;;1999.90;999.90;;;13.60;99.90;;;;;;5079915;28;20671;-83
2021/05/23 09:35:30;;;;;;;1999.90;999.90;;;13.90;99.90;;;;;;5079813;28;20747;-83
2021/05/23 09:38:04;;;;;;;1999.90;999.90;;;13.90;99.90;;;;;;5081295;28;20173;-83
2021/05/23 09:40:39;;;;;;;1999.90;999.90;;;14.00;99.90;;;;;;5081511;28;20176;-83
2021/05/23 09:43:06;;;;;;;1999.90;999.90;;;14.00;99.90;;;;;;5062124;28;20637;-83
2021/05/23 09:45:44;;;;;;;1999.90;999.90;;;14.10;99.90;;;;;;5079100;28;20562;-83
2021/05/23 09:48:24;;;;;;;1999.90;999.90;;;14.30;99.90;;;;;;5079830;28;20238;-83
2021/05/23 09:50:53;;;;;;;1999.90;999.90;;;14.30;99.90;;;;;;5079093;28;20302;-83
2021/05/23 09:53:27;;;;;;;1999.90;999.90;;;14.20;99.90;;;;;;5079229;28;20187;-83
2021/05/23 09:55:55;;;;;;;1999.90;999.90;;;14.00;99.90;;;;;;5061967;28;20261;-83
2021/05/23 09:58:22;;;;;;;1999.90;999.90;;;14.10;99.90;;;;;;5080563;28;20185;-83
2021/05/23 10:00:48;;;;;;;1999.90;999.90;;;14.30;99.90;;;;;;5061939;28;20188;-82
2021/05/23 10:03:24;;;;;;;1999.90;999.90;;;14.70;99.90;;;;;;5079284;28;20185;-83
2021/05/23 10:05:51;;;;;;;1999.90;999.90;;;14.60;99.90;;;;;;5061272;28;20204;-83
2021/05/23 10:08:17;;;;;;;1999.90;999.90;;;14.40;99.90;;;;;;5079505;28;20169;-83
2021/05/23 10:10:44;;;;;;;1999.90;999.90;;;14.40;99.90;;;;;;5079877;28;20373;-83
2021/05/23 10:13:10;;;;;;;1999.90;999.90;;;14.40;99.90;;;;;;5061523;28;20539;-83
2021/05/23 10:15:37;;;;;;;1999.90;999.90;;;14.50;99.90;;;;;;5061882;28;20220;-83
2021/05/23 10:18:03;;;;;;;1999.90;999.90;;;14.70;99.90;;;;;;5061369;28;20173;-83
2021/05/23 10:20:29;;;;;;;1999.90;999.90;;;14.90;99.90;;;;;;5080007;28;20173;-83
2021/05/23 10:22:58;;;;;;;1999.90;999.90;;;15.00;99.90;;;;;;5071059;28;20617;-83
2021/05/23 10:25:26;;;;;;;1999.90;999.90;;;15.10;99.90;;;;;;5078931;28;20200;-83
2021/05/23 10:27:53;;;;;;;1999.90;999.90;;;15.10;99.90;;;;;;5061948;28;20264;-83
2021/05/23 10:30:20;;;;;;;1999.90;999.90;;;15.20;99.90;;;;;;5079145;28;20724;-83
2021/05/23 10:32:45;;;;;;;1999.90;999.90;;;15.30;99.90;;;;;;5078719;28;20165;-83
2021/05/23 10:35:22;;;;;;;1999.90;999.90;;;15.30;99.90;;;;;;5078018;28;20575;-83
2021/05/23 10:37:50;;;;;;;1999.90;999.90;;;15.20;99.90;;;;;;5078230;28;20181;-83
2021/05/23 10:40:15;;;;;;;1999.90;999.90;;;15.30;99.90;;;;;;5080317;28;20204;-83
2021/05/23 10:42:48;;;;;;;1999.90;999.90;;;15.10;99.90;;;;;;5078238;28;20181;-83
2021/05/23 10:45:26;;;;;;;1999.90;999.90;;;14.90;99.90;;;;;;5079016;28;20208;-83
2021/05/23 10:47:52;;;;;;;1999.90;999.90;;;15.30;99.90;;;;;;5059752;28;20225;-83
2021/05/23 10:50:28;;;;;;;1999.90;999.90;;;15.10;99.90;;;;;;5077819;28;20165;-82
2021/05/23 10:52:57;;;;;;;1999.90;999.90;;;15.20;99.90;;;;;;5059206;28;20173;-83
2021/05/23 10:55:23;;;;;;;1999.90;999.90;;;14.80;99.90;;;;;;5059900;28;20209;-82
2021/05/23 10:57:54;;;;;;;1999.90;999.90;;;14.70;99.90;;;;;;5070200;28;20193;-83
2021/05/23 11:00:20;;;;;;;1999.90;999.90;;;14.90;99.90;;;;;;5073180;28;20213;-83
2021/05/23 11:02:46;;;;;;;1999.90;999.90;;;15.00;99.90;;;;;;5060151;28;20173;-83
2021/05/23 11:05:29;;;;;;;1999.90;999.90;;;15.20;99.90;;;;;;5078786;28;20236;-83
2021/05/23 11:08:00;;;;;;;1999.90;999.90;;;15.60;99.90;;;;;;5078951;28;20185;-83
2021/05/23 11:10:42;;;;;;;1999.90;999.90;;;15.70;99.90;;;;;;5078020;28;20165;-83
2021/05/23 11:13:15;;;;;;;1999.90;999.90;;;15.80;99.90;;;;;;5077807;28;20176;-83
2021/05/23 11:15:46;;;;;;;1999.90;999.90;;;15.90;99.90;;;;;;5060307;28;20205;-83
2021/05/23 11:18:23;;;;;;;1999.90;999.90;;;16.10;99.90;;;;;;5078626;28;20230;-83
2021/05/23 11:21:09;;;;;;;1999.90;999.90;;;16.10;99.90;;;;;;5077238;28;20181;-82
2021/05/23 11:23:53;;;;;;;1999.90;999.90;;;16.20;99.90;;;;;;5074310;28;20184;-83
2021/05/23 11:26:19;;;;;;;1999.90;999.90;;;16.30;99.90;;;;;;5071156;28;20173;-82
2021/05/23 11:28:54;;;;;;;1999.90;999.90;;;16.40;99.90;;;;;;5060200;28;20197;-84
2021/05/23 11:31:27;;;;;;;1999.90;999.90;;;16.50;99.90;;;;;;5073981;28;20204;-83
2021/05/23 11:33:53;;;;;;;1999.90;999.90;;;16.50;99.90;;;;;;5059704;28;20196;-82
2021/05/23 11:36:20;;;;;;;1999.90;999.90;;;16.70;99.90;;;;;;5078343;28;20173;-84
2021/05/23 11:38:47;;;;;;;1999.90;999.90;;;16.90;99.90;;;;;;5078702;28;20628;-83
2021/05/23 11:41:12;;;;;;;1999.90;999.90;;;16.90;99.90;;;;;;5077288;28;20173;-83
2021/05/23 11:43:38;;;;;;;1999.90;999.90;;;16.70;99.90;;;;;;5077153;28;20176;-83
2021/05/23 11:46:06;;;;;;;1999.90;999.90;;;16.70;99.90;;;;;;5075403;28;20661;-82
2021/05/23 11:48:39;;;;;;;1999.90;999.90;;;16.70;99.90;;;;;;5060486;28;20232;-83
2021/05/23 11:51:08;;;;;;;1999.90;999.90;;;16.90;99.90;;;;;;5062517;28;20181;-83
2021/05/23 11:53:45;;;;;;;1999.90;999.90;;;17.10;99.90;;;;;;5061412;28;20178;-82
2021/05/23 11:56:17;;;;;;;1999.90;999.90;;;17.00;99.90;;;;;;5080104;28;20187;-82
2021/05/23 11:58:47;;;;;;;1999.90;999.90;;;17.00;99.90;;;;;;5078995;28;20226;-83
2021/05/23 12:01:33;;;;;;;1999.90;999.90;;;17.20;99.90;;;;;;5051545;28;20179;-83
2021/05/23 12:04:11;;;;;;;1999.90;999.90;;;17.20;99.90;;;;;;5061675;28;20749;-82
2021/05/23 12:06:54;;;;;;;1999.90;999.90;;;17.10;99.90;;;;;;5079899;28;20191;-82